Aérodrome :
LOGIN :

S'inscrire | Disclaimer

   EN    FR    IT 

 










Légende :    VFR   VFR Marginal   IFR   IFR Intensif   IFR Très Intensif
Visi : 
Plafond : 
>= 8 km
>= 3000ft
5 à 8 km
1000 à 3000 ft
1500m à 5 km
500 à 1000 ft
800 à 1500m
200 à 500 ft
< 800m
< 200 ft
Symboles :   Orages  Brouillard  Fortes neiges  Fortes précipitations  Vent > 20 kt
SIGMETs :   Divers  Orages  Givrage  Turbulence  Onde Orograph.  Cendres Volcan.







- Altitude de l'aérodrome : 195 ft
- Voir les cartes d'approche


LFMY - Salon de Provence

DERNIER METAR :
  • 220400Z AUTO 00000KT 3000 R16/1400N BR NSC 15/14 Q1012

METARs EXPIRÉS :
  • 220330Z AUTO 00000KT 4300 BR NSC 15/14 Q1012
  • 220300Z AUTO 00000KT 7000 FEW010 BKN092 BKN110 15/14 Q1012
  • 220230Z AUTO 36001KT 7000 SCT011 BKN024 OVC100 15/14 Q1012
  • 220200Z AUTO 00000KT 7000 -RA NSC 16/14 Q1012
  • 220130Z AUTO VRB02KT 7000 -RA FEW043/// OVC088/// ///TCU 16/14 Q1012

TAF AMD TAF LFMY
Valide du 21 à 17h jusqu'au 22 à 15h UTC


211721Z 2117/2215 VRB05KT CAVOK
PROB30
TEMPO 2117/2204 SHRA SCT040TCU FEW050CB
Pas de NOTAMs connus pour ce terrain.



MET'MAP, la Météo Aéronautique d'un coup d'oeil ! - Copyright ORBIFLY Décembre 2007 - Disclaimer

ORBIFLY MET'MAP TEAM :

Programmation & Développement : Alexandra Zaïnal
Conception & Développement : Baudouin d'Aumeries
Co-Programmation & Développement : Marc-Olivier Méhu
Soutien technique & logistique : Manuel Goepfert

Contact : metmap@orbifly.com




SOURCES & CREDITS :

   NOAA